AirNav   Everest Fuels
 
 912 users online  

KCKZ Pennridge Airport
Perkasie, Pennsylvania, USA

GOING TO PERKASIE?


FAA INFORMATION EFFECTIVE 05 DECEMBER 2019

Location

FAA Identifier: CKZ
Lat/Long: 40-23-21.1000N 075-17-25.7000W
40-23.351667N 075-17.428333W
40.3891944,-75.2904722
(estimated)
Elevation: 567.6 ft. / 173.0 m (surveyed)
Variation: 12W (2005)
From city: 1 mile N of PERKASIE, PA
Time zone: UTC -5 (UTC -4 during Daylight Saving Time)
Zip code: 18944

Airport Operations

Airport use: Open to the public
Activation date: 04/1969
Control tower: no
ARTCC: NEW YORK CENTER
FSS: WILLIAMSPORT FLIGHT SERVICE STATION
NOTAMs facility: IPT (NOTAM-D service available)
Attendance: 0800-1600
Pattern altitude: TPA FOR LIGHT ACFT 800 FT AGL; TPA FOR TURBO PROP & JETS 1200 FT AGL.
Wind indicator: lighted
Segmented circle: no
Lights: ACTIVATE PAPI RY 08/26; MIRL RY 08/26 - CTAF.
Beacon: white-green (lighted land airport)
Operates sunset to sunrise.

Airport Communications

CTAF/UNICOM: 123.0
WX AWOS-3: 126.325 (215-257-7291)
PHILADELPHIA APPROACH: 123.8
PHILADELPHIA DEPARTURE: 123.8
CLEARANCE DELIVERY: 118.55
WX AWOS-3 at UKT (5 nm NW): 119.475 (215-538-7610)
WX ASOS at DYL (8 nm SE): 118.875 (215-345-0392)
WX AWOS-3 at XLL (14 nm NW): 127.875 (610-231-3111)
WX ASOS at PTW (15 nm SW): 119.425 (610-495-0823)
WX AWOS-3 at LOM (15 nm S): 118.925 (215-646-1068)
WX ASOS at ABE (17 nm NW): PHONE 610-266-3579
  • CLEARANCE DELIVERY PHILADELPHIA APCH TF 800-354-9884.

Nearby radio navigation aids

VOR radial/distance  VOR name  Freq  Var
PTWr060/15.9POTTSTOWN VORTAC116.5009W
ARDr305/19.3YARDLEY VOR/DME108.2010W
ETXr132/21.3EAST TEXAS VOR/DME110.2009W
FJCr170/21.6ALLENTOWN VORTAC117.5010W
SBJr255/27.6SOLBERG VOR/DME112.9010W
BWZr232/32.5BROADWAY VOR/DME114.2011W
MXEr041/33.2MODENA VORTAC113.2009W
RBVr297/38.1ROBBINSVILLE VORTAC113.8010W
GXUr318/39.1MC GUIRE VORTAC110.6012W

 
NDB name  Hdg/Dist  Freq  Var  ID
AMBLER011/15.827512WING .. -. --.

Airport Services

Fuel available: 100LL JET-A
Parking: hangars and tiedowns
Airframe service: MAJOR
Powerplant service: MAJOR
Bottled oxygen: NONE
Bulk oxygen: NONE

Runway Information

Runway 8/26

Dimensions: 4211 x 100 ft. / 1284 x 30 m
Surface: asphalt/porous friction courses, in good condition
Weight bearing capacity: 
Double wheel: 26.0
Runway edge lights: medium intensity
Operational restrictions: RY 08/26 CLSD TO TOUCH & GO LDGS.
RUNWAY 8  RUNWAY 26
Latitude: 40-23.230958N40-23.471240N
Longitude: 075-17.853907W075-17.003272W
Elevation: 519.8 ft.567.6 ft.
Traffic pattern: leftleft
Runway heading: 082 magnetic, 070 true262 magnetic, 250 true
Displaced threshold: 266 ft.351 ft.
Markings: nonprecision, in good conditionnonprecision, in good condition
Visual slope indicator: 2-light PAPI on left (3.78 degrees glide path)2-light PAPI on left (4.00 degrees glide path)
Runway end identifier lights: nono
Touchdown point: yes, no lightsyes, no lights
Obstructions: 40 ft. trees, 310 ft. from runway, 225 ft. right of centerline, 2:1 slope to clear
APCH RATIO 14:1 TO DTHR.
53 ft. trees, 589 ft. from runway, 300 ft. right of centerline, 7:1 slope to clear
10 FT BLAST FENCE AT RWY END. 40 FT TREES, 17 FT FM RWY END, 195 FT RIGHT.

Airport Ownership and Management from official FAA records

Ownership: Privately-owned
Owner: PENNRIDGE DEVELOPMENT ENT INC
1100 RIDGE ROAD
PERKASIE, PA 18944
Phone 215-257-0166
Manager: JEAN CURRY
1100 N RIDGE ROAD
PERKASIE, PA 18944
Phone 215-257-0166

Airport Operational Statistics

Aircraft based on the field: 52
Single engine airplanes: 48
Multi engine airplanes: 2
Jet airplanes: 2
    
Aircraft operations: avg 60/day *
68% local general aviation
32% transient general aviation
<1% military
* for 12-month period ending 11 April 2019

Additional Remarks

OCCASIONAL DEER AND WILD TURKEYS INVOF RWY.
SKYDIVING ACT DLY DAWN TO DUSK.
FOR SVC AFT HRS CTC (267) 718-4254 AND (812) 592-2704.
FOR CD CTC PHILADELPHIA APCH AT 800-354-9884.

Instrument Procedures

NOTE: All procedures below are presented as PDF files. If you need a reader for these files, you should download the free Adobe Reader.

NOT FOR NAVIGATION. Please procure official charts for flight.
FAA instrument procedures published for use from 05 December 2019 at 0900Z to 02 January 2020 at 0900Z.

 
IAPs - Instrument Approach Procedures
RNAV (GPS) RWY 08   download (156KB)
RNAV (GPS) RWY 26   download (143KB)
NOTE: Special Take-Off Minimums/Departure Procedures apply   download (149KB)

Other nearby airports with instrument procedures:

KUKT - Quakertown Airport (5 nm NW)
KDYL - Doylestown Airport (8 nm SE)
N10 - Perkiomen Valley Airport (13 nm SW)
KXLL - Allentown Queen City Municipal Airport (14 nm NW)
KPTW - Heritage Field Airport (15 nm SW)
KLOM - Wings Field Airport (15 nm S)
N85 - Alexandria Airport (17 nm NE)
KABE - Lehigh Valley International Airport (17 nm NW)
N40 - Sky Manor Airport (18 nm NE)
N47 - Pottstown Municipal Airport (19 nm SW)
 
Loc | Ops | Rwys | IFR | FBO | Links
Com | Nav | Svcs | Stats | Notes
Area around KCKZ (Pennridge Airport)
 
Road maps at: MapQuest Bing Google
 
Aerial photo
WARNING: Photo may not be current or correct
Aerial photo of KCKZ (Pennridge Airport)
Photo taken 30-Sep-2005
taken from 4000 ft MSL

Do you have a better or more recent aerial photo of Pennridge Airport that you would like to share? If so, please send us your photo.

 
Sectional chart

 
Airport distance calculator
Flying to Pennridge Airport? Find the distance to fly.

From to KCKZ

Sunrise and sunset
Times for 09-Dec-2019
 Local
(UTC-5)
 Zulu
(UTC)
Morning civil twilight06:4311:43
Sunrise07:1312:13
Sunset16:3421:34
Evening civil twilight17:0422:04

Current date and time
Zulu (UTC)  09-Dec-2019 13:45:35
Local (UTC-5)  09-Dec-2019 08:45:35
 
METAR
KUKT 
5nm NW 
091335Z AUTO 00000KT 1/2SM BR OVC003 04/04 A3008 RMK A01
KDYL 
9nm SE 
091330Z AUTO 02004KT 4SM -RA BR OVC005 05/03 A3007 RMK AO2 T00500033 PNO $
KXLL 
14nm NW 
091335Z AUTO 00000KT 3/4SM -DZ OVC003 03/03 A3010 RMK AO2
KPTW 
15nm SW 
091332Z AUTO 00000KT 1SM BR OVC003 04/04 A3010 RMK AO2 RAB03E23 P0001 T00390039
KLOM 
15nm S 
091335Z AUTO 00000KT 1 1/4SM DZ BR OVC006 05/05 A3009 RMK AO2 P0001 T0054////
KABE 
17nm NW 
091251Z 00000KT 3/4SM -RA BR OVC004 04/02 A3010 RMK AO2 SLP197 P0002 T00390017
TAF
KABE 
17nm NW 
091126Z 0912/1012 08004KT 4SM -RA OVC007 TEMPO 0912/0916 2SM -RADZ OVC003 FM091600 12008KT 1SM -RA OVC003 WS020/20035KT FM092000 18008KT 1SM -RA OVC003 WS020/20035KT FM100200 22010KT 3SM -SHRA BR OVC008 WS020/20035KT FM100800 23010G18KT P6SM OVC015
NOTAMs
Click for the latest NOTAMs
NOTAMs are issued by the DoD/FAA and will open in a separate window not controlled by AirNav.

 

 
 

FBO, Fuel Providers, and Aircraft Ground Support

  
 Business Name 
 
 Contact 
 
 Services / Description 
 
Fuel Prices
 
Comments
  
Pennridge Airport 215-257-0166
no information available

If you are affiliated with Pennridge Airport and would like to show here your services, contact info, web link, logo, and more, click here
100LL Jet A
FS $5.08 $5.05 
SS $4.98 --- 
 Updated 05-Dec-2019
 
   1 read write
FS=Full service
SS=Self service
Update Fuel Prices
 

Would you like to see your business listed on this page?

 If your business provides an interesting product or service to pilots, flight crews, aircraft, or users of the Pennridge Airport, you should consider listing it here.  To start the listing process, click on the button below
 
Add a business
 

Other Pages about Pennridge Airport

www.vsware.com/n70
 
Update a link
 
Copyright © AirNav, LLC. All rights reserved. Privacy Policy  Contact